Time;durP1;ratioP1;P1;durP2;ratioP2;P2;SDS_P1;SDS_P2;PMS_P1;PMS_P2;Temp;Humidity;BMP_temperature;BMP_pressure;BME280_temperature;BME280_humidity;BME280_pressure;Samples;Min_cycle;Max_cycle;Signal;HPM_P1;HPM_P2
2022/11/07 00:02:09;;;;;;;1.67;1.08;;;;;;;11.75;83.43;99932.00;5025967;28;20657;-71
2022/11/07 00:04:35;;;;;;;6.22;0.95;;;;;;;11.92;82.03;99925.13;5026878;28;20034;-71
2022/11/07 00:07:01;;;;;;;2.20;1.50;;;;;;;12.14;82.53;99932.88;5028764;28;20383;-71
2022/11/07 00:09:26;;;;;;;2.33;1.38;;;;;;;11.96;82.12;99926.69;5030576;28;20458;-71
2022/11/07 00:11:52;;;;;;;2.47;0.93;;;;;;;11.81;84.01;99929.72;5030986;28;20032;-71
2022/11/07 00:14:18;;;;;;;1.88;1.40;;;;;;;11.79;83.25;99930.09;5044802;28;20040;-71
2022/11/07 00:16:44;;;;;;;2.17;1.17;;;;;;;11.92;83.27;99923.22;5026766;28;20105;-71
2022/11/07 00:19:13;;;;;;;2.35;1.17;;;;;;;12.20;81.62;99915.16;5028196;28;20045;-71
2022/11/07 00:21:38;;;;;;;2.10;1.33;;;;;;;12.01;82.43;99915.50;5021846;28;20057;-71
2022/11/07 00:24:05;;;;;;;1.65;1.10;;;;;;;12.17;82.32;99920.56;5017499;28;20394;-71
2022/11/07 00:26:30;;;;;;;3.10;1.65;;;;;;;12.07;82.25;99908.59;5020285;28;20052;-71
2022/11/07 00:28:55;;;;;;;2.67;1.10;;;;;;;12.09;83.15;99921.69;5024226;28;20037;-71
2022/11/07 00:31:21;;;;;;;2.80;1.48;;;;;;;12.14;82.54;99916.69;5020035;28;20041;-72
2022/11/07 00:33:47;;;;;;;1.52;1.00;;;;;;;12.19;82.67;99920.94;5016386;28;20144;-71
2022/11/07 00:36:22;;;;;;;1.88;1.02;;;;;;;12.21;82.00;99921.34;5017241;28;20045;-71
2022/11/07 00:38:47;;;;;;;4.82;1.40;;;;;;;12.18;82.69;99927.50;5020191;28;20036;-71
2022/11/07 00:41:13;;;;;;;2.25;1.38;;;;;;;12.07;82.57;99926.69;5015279;28;20457;-71
2022/11/07 00:43:39;;;;;;;2.25;1.30;;;;;;;12.22;82.23;99937.16;5020107;28;20052;-71
2022/11/07 00:46:06;;;;;;;3.47;1.40;;;;;;;12.14;82.81;99924.00;5027464;28;20033;-71
2022/11/07 00:48:32;;;;;;;1.40;1.02;;;;;;;12.27;82.47;99931.34;5021745;28;20049;-71
2022/11/07 00:51:09;;;;;;;2.28;1.40;;;;;;;12.03;83.69;99931.31;5022292;28;20100;-71
2022/11/07 00:53:36;;;;;;;2.42;1.58;;;;;;;12.09;83.81;99941.38;5025388;28;20056;-71
2022/11/07 00:56:03;;;;;;;1.75;1.15;;;;;;;12.21;83.40;99945.63;5018668;28;20033;-71
2022/11/07 00:58:28;;;;;;;1.48;1.15;;;;;;;12.33;83.01;99948.72;5016968;28;20113;-71
2022/11/07 01:00:53;;;;;;;4.38;1.50;;;;;;;12.52;82.01;99942.97;5026479;28;20116;-71
2022/11/07 01:06:03;;;;;;;2.13;1.30;;;;;;;12.26;83.57;99953.34;5016903;28;20511;-71
2022/11/07 01:08:30;;;;;;;2.45;1.30;;;;;;;12.23;83.26;99952.19;5022919;28;20053;-71
2022/11/07 01:10:56;;;;;;;2.35;1.60;;;;;;;12.34;83.03;99955.69;5023804;28;20108;-71
2022/11/07 01:13:23;;;;;;;1.77;1.40;;;;;;;12.38;83.39;99953.00;5028868;28;20034;-71
2022/11/07 01:15:49;;;;;;;2.47;1.38;;;;;;;12.38;82.90;99963.78;5045929;28;20125;-71
2022/11/07 01:18:14;;;;;;;3.13;1.30;;;;;;;12.44;82.75;99963.03;5028587;28;20120;-71
2022/11/07 01:20:40;;;;;;;1.77;1.05;;;;;;;12.42;83.16;99959.16;5030244;28;20037;-71
2022/11/07 01:23:06;;;;;;;2.72;1.27;;;;;;;12.49;82.80;99949.16;5029809;28;20124;-71
2022/11/07 01:25:31;;;;;;;2.53;1.08;;;;;;;12.53;83.10;99955.31;5029447;28;20176;-71
2022/11/07 01:27:57;;;;;;;1.63;1.00;;;;;;;12.51;82.74;99954.94;5025377;28;20116;-71
2022/11/07 01:30:22;;;;;;;4.10;1.52;;;;;;;12.61;82.68;99956.88;5029880;28;20028;-71
2022/11/07 01:32:47;;;;;;;2.17;1.23;;;;;;;12.68;81.79;99954.16;5029876;28;20052;-71
2022/11/07 01:35:13;;;;;;;1.45;0.98;;;;;;;12.75;81.99;99964.22;5005633;28;20045;-71
2022/11/07 01:37:39;;;;;;;1.90;1.17;;;;;;;12.75;81.84;99963.44;5023095;28;20548;-71
2022/11/07 01:40:05;;;;;;;1.52;1.08;;;;;;;12.55;82.31;99955.72;5028394;28;20037;-71
2022/11/07 01:42:33;;;;;;;1.15;1.05;;;;;;;12.62;82.94;99961.09;5029925;28;20043;-71
2022/11/07 01:44:59;;;;;;;1.48;0.90;;;;;;;12.72;82.37;99964.97;5024957;28;20025;-71
2022/11/07 01:47:31;;;;;;;2.28;1.30;;;;;;;12.80;81.77;99960.34;5014089;28;20072;-71
2022/11/07 01:49:59;;;;;;;1.95;1.05;;;;;;;12.93;81.18;99950.69;5030324;28;20029;-71
2022/11/07 01:52:33;;;;;;;1.92;1.02;;;;;;;12.88;81.76;99945.66;5030286;28;20468;-71
2022/11/07 01:55:18;;;;;;;1.52;0.95;;;;;;;12.93;81.31;99946.03;5025452;28;20041;-71
2022/11/07 01:57:59;;;;;;;2.50;1.45;;;;;;;12.97;81.28;99946.06;5026690;28;20029;-71
2022/11/07 02:00:25;;;;;;;3.33;1.20;;;;;;;13.02;81.68;99951.06;5020309;28;20026;-71
2022/11/07 02:03:06;;;;;;;4.68;1.10;;;;;;;12.94;81.51;99950.31;5021213;28;20069;-71
2022/11/07 02:05:37;;;;;;;2.10;1.40;;;;;;;12.78;82.29;99954.53;5019646;28;20076;-71
2022/11/07 02:08:06;;;;;;;2.03;1.13;;;;;;;12.70;82.46;99948.38;5022438;28;20044;-71
2022/11/07 02:10:33;;;;;;;1.42;1.20;;;;;;;12.67;82.98;99947.22;5024352;28;20029;-71
2022/11/07 02:12:59;;;;;;;2.00;1.30;;;;;;;12.74;82.94;99949.16;5026669;28;20100;-71
2022/11/07 02:15:25;;;;;;;3.67;1.20;;;;;;;12.87;82.39;99942.22;5024644;28;20452;-71
2022/11/07 02:17:52;;;;;;;6.60;1.55;;;;;;;12.96;81.79;99948.00;5023967;28;20517;-71
2022/11/07 02:20:17;;;;;;;2.97;1.33;;;;;;;12.82;82.30;99944.50;5025211;28;20052;-71
2022/11/07 02:22:54;;;;;;;2.45;1.10;;;;;;;12.94;82.05;99946.81;5026347;28;20097;-71
2022/11/07 02:25:20;;;;;;;1.35;1.13;;;;;;;12.92;82.37;99949.91;5025525;28;20045;-71
2022/11/07 02:27:50;;;;;;;1.70;1.17;;;;;;;12.96;82.06;99948.00;5031870;28;20029;-71
2022/11/07 02:30:18;;;;;;;2.22;1.15;;;;;;;13.01;82.22;99944.09;5031303;28;20402;-71
2022/11/07 02:32:44;;;;;;;1.63;0.98;;;;;;;13.01;81.83;99953.00;5031650;28;20029;-71
2022/11/07 02:35:34;;;;;;;1.15;1.00;;;;;;;12.96;82.26;99947.22;5029846;28;20037;-71
2022/11/07 02:38:06;;;;;;;2.58;1.35;;;;;;;13.04;81.68;99946.84;5031260;28;20437;-71
2022/11/07 02:40:32;;;;;;;1.83;1.08;;;;;;;12.96;82.06;99949.91;5029372;28;20389;-71
2022/11/07 02:42:58;;;;;;;1.38;0.88;;;;;;;12.92;82.50;99949.16;5032423;28;20068;-71
2022/11/07 02:45:28;;;;;;;4.05;1.02;;;;;;;12.97;82.74;99949.53;5027525;28;20501;-71
2022/11/07 02:47:53;;;;;;;2.20;0.98;;;;;;;12.95;82.38;99948.38;5027886;28;20410;-71
2022/11/07 02:50:18;;;;;;;1.25;1.00;;;;;;;13.06;82.11;99946.47;5029316;28;20017;-71
2022/11/07 02:52:44;;;;;;;2.03;1.30;;;;;;;13.09;82.10;99946.44;5028890;28;20033;-71
2022/11/07 02:55:11;;;;;;;1.48;0.90;;;;;;;13.06;81.79;99957.28;5030541;28;20037;-71
2022/11/07 02:57:37;;;;;;;1.98;1.00;;;;;;;12.81;83.45;99954.56;5030723;28;20033;-71
2022/11/07 03:00:04;;;;;;;1.83;1.23;;;;;;;12.93;83.22;99961.50;5027725;28;20040;-71
2022/11/07 03:02:29;;;;;;;2.70;0.98;;;;;;;12.92;83.46;99952.63;5031090;28;20037;-71
2022/11/07 03:04:55;;;;;;;2.58;1.23;;;;;;;13.00;83.25;99967.69;5009868;28;20021;-71
2022/11/07 03:07:20;;;;;;;2.45;1.10;;;;;;;13.10;82.97;99966.16;5032427;28;20104;-71
2022/11/07 03:09:45;;;;;;;1.00;0.80;;;;;;;13.10;82.62;99964.22;5031999;28;20036;-71
2022/11/07 03:12:11;;;;;;;5.57;1.13;;;;;;;13.26;82.03;99964.56;5027901;28;20039;-71
2022/11/07 03:14:36;;;;;;;2.20;1.20;;;;;;;13.25;81.83;99971.16;5035516;22;20049;-65
2022/11/07 03:17:02;;;;;;;1.75;0.80;;;;;;;13.31;82.56;99961.50;5027545;28;20068;-65
2022/11/07 03:19:27;;;;;;;2.00;1.23;;;;;;;13.06;82.97;99959.97;5031056;28;20056;-64
2022/11/07 03:21:53;;;;;;;1.20;0.95;;;;;;;13.10;83.07;99958.03;5032038;28;20210;-64
2022/11/07 03:24:18;;;;;;;2.15;1.15;;;;;;;13.20;82.99;99963.41;5028645;28;20033;-65
2022/11/07 03:26:43;;;;;;;1.25;0.93;;;;;;;13.17;83.29;99958.03;5025659;28;20042;-65
2022/11/07 03:29:09;;;;;;;3.13;1.23;;;;;;;13.16;82.72;99967.31;5027184;28;20041;-65
2022/11/07 03:31:34;;;;;;;1.83;1.15;;;;;;;13.20;82.87;99971.53;5026590;28;20037;-65
2022/11/07 03:34:00;;;;;;;1.25;0.80;;;;;;;13.31;82.92;99974.22;5019883;28;20605;-65
2022/11/07 03:36:25;;;;;;;1.80;1.17;;;;;;;13.29;82.91;99971.91;5021923;28;20421;-65
2022/11/07 03:38:51;;;;;;;2.22;1.10;;;;;;;13.35;82.83;99977.69;5013833;28;20046;-65
2022/11/07 03:41:16;;;;;;;2.55;1.20;;;;;;;13.26;83.22;99977.31;5020255;28;20091;-65
2022/11/07 03:43:45;;;;;;;1.70;1.00;;;;;;;13.35;82.90;99967.66;5031093;28;20409;-64
2022/11/07 03:46:12;;;;;;;1.30;1.00;;;;;;;13.37;83.18;99975.38;5019504;28;20053;-65
2022/11/07 03:48:37;;;;;;;3.88;1.33;;;;;;;13.39;83.19;99973.06;5021181;28;20409;-65
2022/11/07 03:51:04;;;;;;;1.70;1.10;;;;;;;13.46;82.35;99976.50;5023017;28;20037;-64
2022/11/07 03:53:29;;;;;;;1.38;1.15;;;;;;;13.40;83.17;99974.59;5015041;28;20044;-65
2022/11/07 03:55:55;;;;;;;1.73;1.33;;;;;;;13.53;82.79;99975.72;5028414;28;20045;-65
2022/11/07 03:58:22;;;;;;;3.13;1.20;;;;;;;13.38;83.56;99971.50;5018444;28;20121;-65
2022/11/07 04:00:47;;;;;;;1.83;1.40;;;;;;;13.52;82.56;99983.06;5026971;28;20021;-65
2022/11/07 04:03:13;;;;;;;1.65;1.10;;;;;;;13.50;83.11;99981.91;5031659;28;20095;-64
2022/11/07 04:05:38;;;;;;;1.08;0.85;;;;;;;13.46;83.39;99984.63;5012221;28;20048;-64
2022/11/07 04:08:04;;;;;;;2.15;1.40;;;;;;;13.57;82.69;99976.47;5014230;28;20068;-65
2022/11/07 04:10:30;;;;;;;1.30;1.15;;;;;;;13.41;83.59;99978.84;5021288;28;20374;-65
2022/11/07 04:18:25;;;;;;;5.57;1.50;;;;;;;13.45;83.82;99980.38;5012116;28;20515;-65
2022/11/07 04:20:51;;;;;;;1.52;1.20;;;;;;;13.53;83.27;99986.53;5014774;28;20109;-65
2022/11/07 04:23:16;;;;;;;1.42;1.10;;;;;;;13.47;84.05;99988.13;5022322;28;20041;-65
2022/11/07 04:28:30;;;;;;;3.15;1.33;;;;;;;13.69;83.23;99989.59;5007172;28;20072;-65
2022/11/07 04:30:55;;;;;;;4.65;1.40;;;;;;;13.62;83.35;99984.19;5030148;28;20072;-65
2022/11/07 04:33:21;;;;;;;3.03;1.27;;;;;;;13.54;83.52;99979.97;5022768;28;20053;-65
2022/11/07 04:35:46;;;;;;;5.38;1.33;;;;;;;13.54;83.97;99993.50;5028767;28;20485;-65
2022/11/07 04:38:12;;;;;;;2.45;1.27;;;;;;;13.55;84.10;99995.81;5027255;28;20061;-65
2022/11/07 04:40:37;;;;;;;2.25;1.05;;;;;;;13.54;84.20;99979.97;5021854;28;20100;-64
2022/11/07 04:43:07;;;;;;;0.90;0.90;;;;;;;13.66;83.84;99992.31;5031014;28;20056;-64
2022/11/07 04:45:37;;;;;;;2.75;1.30;;;;;;;13.68;83.75;99990.75;5029937;28;20037;-65
2022/11/07 04:48:03;;;;;;;2.85;1.30;;;;;;;13.52;84.57;99987.72;5029910;28;20040;-65
2022/11/07 04:50:29;;;;;;;1.55;0.90;;;;;;;13.59;84.61;99995.78;5031039;28;20490;-65
2022/11/07 04:52:55;;;;;;;8.55;1.40;;;;;;;13.43;85.00;99979.25;5029988;28;20041;-65
2022/11/07 04:55:25;;;;;;;1.17;1.08;;;;;;;13.62;84.65;99980.72;5029973;28;20104;-65
2022/11/07 04:57:52;;;;;;;1.67;1.40;;;;;;;13.68;84.11;99976.44;5030989;28;20528;-65
2022/11/07 05:00:18;;;;;;;4.75;1.02;;;;;;;13.76;84.17;99984.16;5030040;28;20036;-65
2022/11/07 05:02:45;;;;;;;3.17;1.42;;;;;;;13.67;84.33;99972.19;5030782;28;20038;-65
2022/11/07 05:05:11;;;;;;;2.45;1.38;;;;;;;13.79;84.16;99977.19;5013930;28;20054;-64
2022/11/07 05:07:37;;;;;;;2.85;1.42;;;;;;;13.38;85.52;99983.09;5017767;28;20638;-65
2022/11/07 05:10:04;;;;;;;4.05;1.55;;;;;;;13.39;85.84;99983.88;5018776;28;20409;-65
2022/11/07 05:12:30;;;;;;;1.20;1.05;;;;;;;13.61;85.81;99995.44;5030546;28;20048;-65
2022/11/07 05:14:55;;;;;;;3.30;1.50;;;;;;;13.52;85.90;99987.72;5028591;28;20033;-65
2022/11/07 05:17:21;;;;;;;1.75;1.40;;;;;;;13.60;85.54;99983.81;5028371;28;20124;-65
2022/11/07 05:19:46;;;;;;;3.05;1.42;;;;;;;13.67;84.85;99991.13;5026103;28;20041;-65
2022/11/07 05:24:56;;;;;;;4.90;1.50;;;;;;;13.61;84.68;99998.88;5026524;28;20041;-65
2022/11/07 05:27:22;;;;;;;2.20;1.20;;;;;;;13.50;85.23;99995.44;5031199;28;20032;-65
2022/11/07 05:29:47;;;;;;;3.60;1.30;;;;;;;13.56;85.45;99991.19;5030333;28;20027;-64
2022/11/07 05:32:13;;;;;;;4.28;1.20;;;;;;;13.60;85.42;99994.66;5030310;28;20087;-65
2022/11/07 05:34:39;;;;;;;2.15;1.30;;;;;;;13.59;84.87;99993.09;5018617;28;20443;-65
2022/11/07 05:37:09;;;;;;;2.58;1.30;;;;;;;13.78;84.74;100000.00;5026470;28;20072;-65
2022/11/07 05:39:35;;;;;;;2.92;1.25;;;;;;;13.70;84.39;99991.13;5030797;28;20069;-65
2022/11/07 05:42:01;;;;;;;4.53;1.45;;;;;;;13.60;84.99;100000.06;5030183;28;20065;-65
2022/11/07 05:44:27;;;;;;;2.05;1.10;;;;;;;13.66;85.42;100003.13;5016389;28;20918;-65
2022/11/07 05:46:52;;;;;;;1.70;1.20;;;;;;;13.31;86.33;100003.97;5025842;28;20056;-65
2022/11/07 05:49:18;;;;;;;1.52;1.08;;;;;;;13.53;86.00;100008.16;5031097;28;20029;-65
2022/11/07 05:51:43;;;;;;;3.20;1.30;;;;;;;13.48;85.91;100006.66;5030341;28;20409;-65
2022/11/07 05:54:08;;;;;;;2.20;1.60;;;;;;;13.63;85.42;100009.34;5011921;28;20038;-65
2022/11/07 05:56:36;;;;;;;3.55;1.38;;;;;;;13.65;85.60;100005.06;5010917;28;20038;-65
2022/11/07 05:59:03;;;;;;;5.38;1.55;;;;;;;13.59;86.02;100009.31;5010892;28;20088;-65
2022/11/07 06:01:28;;;;;;;1.75;1.25;;;;;;;13.49;85.87;99996.63;5016415;28;20033;-65
2022/11/07 06:03:53;;;;;;;1.40;1.20;;;;;;;13.33;86.93;100005.16;5020101;28;20053;-64
2022/11/07 06:06:19;;;;;;;6.72;1.27;;;;;;;13.25;87.38;100002.81;5015798;28;20089;-64
2022/11/07 06:08:44;;;;;;;3.53;1.48;;;;;;;13.36;87.33;100011.69;5023849;28;20120;-64
2022/11/07 06:11:12;;;;;;;1.77;1.40;;;;;;;13.41;86.74;100003.19;5033905;28;20026;-64
2022/11/07 06:13:38;;;;;;;2.40;1.17;;;;;;;13.48;86.60;100009.34;5033032;28;20037;-65
2022/11/07 06:16:03;;;;;;;3.22;1.25;;;;;;;13.44;87.27;100014.00;5026669;28;20045;-65
2022/11/07 06:18:29;;;;;;;5.45;1.60;;;;;;;13.27;87.57;100022.91;5017431;28;20469;-65
2022/11/07 06:20:54;;;;;;;1.95;1.30;;;;;;;13.47;87.22;100017.88;5014085;28;20037;-65
2022/11/07 06:23:20;;;;;;;1.38;1.05;;;;;;;13.56;86.80;100026.34;5013732;28;20120;-65
2022/11/07 06:25:46;;;;;;;4.53;1.85;;;;;;;13.47;86.68;100026.75;5011865;28;20065;-65
2022/11/07 06:28:13;;;;;;;2.33;1.13;;;;;;;13.54;86.78;100028.66;5013952;28;20042;-65
2022/11/07 06:30:38;;;;;;;1.73;1.15;;;;;;;13.55;86.24;100032.91;5027880;28;20374;-65
2022/11/07 06:33:09;;;;;;;2.95;1.27;;;;;;;13.57;86.87;100031.34;5012936;28;20042;-64
2022/11/07 06:35:34;;;;;;;5.97;1.27;;;;;;;13.57;86.20;100036.00;5020949;28;20489;-65
2022/11/07 06:38:03;;;;;;;2.80;1.42;;;;;;;13.77;85.30;100045.25;5014120;28;20033;-64
2022/11/07 06:40:29;;;;;;;3.13;1.45;;;;;;;13.56;85.63;100039.88;5033312;28;20029;-65
2022/11/07 06:42:54;;;;;;;4.40;1.38;;;;;;;13.61;86.02;100041.41;5031034;28;20379;-65
2022/11/07 06:45:21;;;;;;;2.00;1.52;;;;;;;13.56;86.58;100042.59;5019929;28;20080;-65
2022/11/07 06:47:46;;;;;;;2.90;1.25;;;;;;;13.64;85.98;100049.53;5018279;28;20037;-65
2022/11/07 06:50:11;;;;;;;2.05;1.55;;;;;;;13.66;85.79;100049.13;5023118;28;20363;-65
2022/11/07 06:52:37;;;;;;;3.30;2.15;;;;;;;13.43;86.40;100055.72;5031738;28;20111;-65
2022/11/07 06:55:02;;;;;;;1.77;1.50;;;;;;;13.50;86.54;100063.84;5029215;28;20037;-66
2022/11/07 06:57:28;;;;;;;2.20;1.52;;;;;;;13.39;86.69;100057.66;5013896;28;20061;-66
2022/11/07 06:59:53;;;;;;;1.23;1.13;;;;;;;13.39;87.44;100059.59;5023550;28;20832;-65
2022/11/07 07:02:19;;;;;;;2.20;1.38;;;;;;;13.32;87.23;100054.19;5023898;28;20049;-65
2022/11/07 07:04:46;;;;;;;1.58;1.23;;;;;;;13.23;88.19;100070.03;5028191;28;20038;-65
2022/11/07 07:07:12;;;;;;;2.13;1.35;;;;;;;13.16;89.19;100078.16;5020598;28;20112;-65
2022/11/07 07:09:37;;;;;;;1.60;1.10;;;;;;;13.26;88.59;100071.97;5024997;28;20025;-65
2022/11/07 07:12:03;;;;;;;2.03;1.33;;;;;;;13.36;88.33;100073.91;5030775;28;20026;-65
2022/11/07 07:14:28;;;;;;;1.13;1.00;;;;;;;13.33;87.84;100074.69;5030559;28;20555;-65
2022/11/07 07:16:57;;;;;;;1.17;1.08;;;;;;;13.44;88.21;100080.84;5021388;28;20101;-64
2022/11/07 07:19:23;;;;;;;5.50;1.50;;;;;;;13.44;87.88;100078.16;5012569;28;20117;-65
2022/11/07 07:21:51;;;;;;;1.35;1.25;;;;;;;13.44;87.73;100086.25;5012429;28;20749;-65
2022/11/07 07:24:17;;;;;;;2.70;2.00;;;;;;;13.35;87.70;100085.88;5012018;28;20033;-65
2022/11/07 07:26:42;;;;;;;2.75;1.40;;;;;;;13.53;87.51;100086.63;5012714;28;20093;-65
2022/11/07 07:29:08;;;;;;;4.22;1.30;;;;;;;13.46;87.52;100086.66;5012595;28;20030;-65
2022/11/07 07:31:33;;;;;;;2.83;1.40;;;;;;;13.30;89.08;100081.63;5012073;28;20125;-64
2022/11/07 07:33:59;;;;;;;2.45;1.55;;;;;;;13.23;88.73;100086.25;5010469;28;20021;-64
2022/11/07 07:36:24;;;;;;;2.13;0.95;;;;;;;13.45;88.86;100088.56;5016155;28;20056;-65
2022/11/07 07:38:50;;;;;;;4.43;1.15;;;;;;;13.56;88.07;100102.88;5028109;28;20045;-65
2022/11/07 07:41:17;;;;;;;3.83;1.70;;;;;;;13.55;87.72;100105.94;5030454;28;20040;-65
2022/11/07 07:43:42;;;;;;;1.30;1.05;;;;;;;13.63;88.26;100101.34;5012324;28;20125;-65
2022/11/07 07:46:12;;;;;;;3.88;1.27;;;;;;;13.54;88.60;100101.72;5021300;28;20105;-65
2022/11/07 07:48:38;;;;;;;2.88;1.20;;;;;;;13.62;87.68;100097.84;5011873;28;20038;-65
2022/11/07 07:51:03;;;;;;;5.65;1.50;;;;;;;13.90;86.93;100100.50;5028002;28;20075;-65
2022/11/07 07:53:29;;;;;;;2.28;1.35;;;;;;;13.81;87.34;100102.84;5026888;28;20037;-65
2022/11/07 07:55:59;;;;;;;3.65;1.75;;;;;;;13.86;86.77;100107.09;5010441;28;20034;-65
2022/11/07 07:58:25;;;;;;;1.38;1.10;;;;;;;13.89;86.61;100093.53;5025541;28;20124;-65
2022/11/07 08:00:52;;;;;;;2.80;1.83;;;;;;;13.96;86.54;100100.84;5011638;28;20073;-65
2022/11/07 08:03:18;;;;;;;1.73;1.35;;;;;;;13.83;86.60;100107.84;5011444;28;20133;-65
2022/11/07 08:05:43;;;;;;;5.78;1.08;;;;;;;13.93;86.84;100098.94;5010042;28;20116;-65
2022/11/07 08:08:08;;;;;;;1.52;1.17;;;;;;;13.94;86.38;100103.19;5019396;28;20042;-65
2022/11/07 08:10:34;;;;;;;2.60;1.33;;;;;;;13.96;86.04;100104.34;5012723;28;20459;-66
2022/11/07 08:12:59;;;;;;;3.22;2.03;;;;;;;14.01;86.05;100100.47;5009211;28;20040;-66
2022/11/07 08:15:25;;;;;;;6.18;1.50;;;;;;;14.20;85.91;100100.03;5010010;28;20041;-66
2022/11/07 08:17:51;;;;;;;1.27;1.17;;;;;;;14.38;85.49;100104.22;5011574;28;20052;-66
2022/11/07 08:20:23;;;;;;;7.32;1.80;;;;;;;14.51;84.97;100111.94;5015829;28;20026;-66
2022/11/07 08:22:49;;;;;;;4.72;1.33;;;;;;;14.59;83.63;100108.03;5025944;28;20375;-66
2022/11/07 08:25:15;;;;;;;3.72;2.08;;;;;;;14.66;83.69;100110.69;5030185;28;20631;-66
2022/11/07 08:27:40;;;;;;;2.80;1.60;;;;;;;14.84;83.23;100124.94;5030838;28;20083;-66
2022/11/07 08:30:07;;;;;;;2.88;1.60;;;;;;;14.79;82.91;100111.78;5023279;28;20017;-66
2022/11/07 08:32:33;;;;;;;1.80;1.25;;;;;;;14.74;82.81;100120.31;5025950;28;20487;-65
2022/11/07 08:34:59;;;;;;;2.03;1.25;;;;;;;14.81;82.73;100123.00;5015923;28;20033;-64
2022/11/07 08:37:24;;;;;;;2.45;0.70;;;;;;;14.88;82.56;100123.75;5029499;28;20041;-65
2022/11/07 08:39:49;;;;;;;2.40;1.00;;;;;;;14.88;81.50;100128.38;5011180;28;20037;-65
2022/11/07 08:42:15;;;;;;;2.38;1.27;;;;;;;14.79;82.46;100130.78;5011087;28;20095;-65
2022/11/07 08:44:40;;;;;;;4.05;1.77;;;;;;;14.68;82.86;100138.16;5012551;28;20037;-64
2022/11/07 08:47:06;;;;;;;2.60;1.13;;;;;;;14.56;83.07;100125.84;5021402;28;20036;-65
2022/11/07 08:49:32;;;;;;;2.20;1.38;;;;;;;14.63;83.23;100133.94;5009752;28;20032;-65
2022/11/07 08:51:58;;;;;;;2.63;1.50;;;;;;;14.64;83.51;100121.16;5011719;28;20493;-65
2022/11/07 08:54:27;;;;;;;1.73;1.05;;;;;;;14.67;83.52;100147.47;5027579;28;20512;-65
2022/11/07 08:56:53;;;;;;;4.57;1.38;;;;;;;14.74;83.79;100147.44;5021669;28;20033;-65
2022/11/07 08:59:18;;;;;;;1.98;1.35;;;;;;;14.79;82.79;100133.50;5030571;28;20033;-65
2022/11/07 09:01:43;;;;;;;1.95;1.40;;;;;;;14.83;83.06;100139.63;5027390;28;20029;-65
2022/11/07 09:04:09;;;;;;;2.45;1.67;;;;;;;14.79;83.21;100145.09;5019152;28;20568;-65
2022/11/07 09:06:34;;;;;;;3.85;1.92;;;;;;;14.87;83.36;100145.81;5029130;28;20038;-64
2022/11/07 09:08:59;;;;;;;3.53;1.35;;;;;;;14.79;83.80;100147.78;5030794;28;20063;-65
2022/11/07 09:11:25;;;;;;;3.55;1.80;;;;;;;14.73;83.39;100160.22;5015533;28;20038;-65
2022/11/07 09:13:52;;;;;;;2.58;1.45;;;;;;;14.69;83.74;100142.44;5007559;28;20589;-65
2022/11/07 09:16:19;;;;;;;3.55;1.77;;;;;;;14.80;83.04;100154.00;5055855;22;20045;-72
2022/11/07 09:18:46;;;;;;;7.25;2.58;;;;;;;14.72;83.73;100144.34;5043526;28;20389;-71
2022/11/07 09:21:12;;;;;;;2.47;1.50;;;;;;;14.90;83.68;100148.53;5055031;28;20395;-73
2022/11/07 09:23:37;;;;;;;3.75;1.70;;;;;;;15.19;82.94;100151.84;5050525;28;20092;-73
2022/11/07 09:26:03;;;;;;;2.25;1.15;;;;;;;15.28;81.87;100157.56;5031865;28;20623;-73
2022/11/07 09:28:29;;;;;;;4.18;1.85;;;;;;;15.25;81.29;100151.00;5041861;28;20028;-72
2022/11/07 09:30:56;;;;;;;5.40;1.20;;;;;;;15.12;81.68;100151.84;5050438;28;20029;-72
2022/11/07 09:33:23;;;;;;;1.75;1.30;;;;;;;15.24;81.54;100154.13;5036131;28;20036;-73
2022/11/07 09:35:49;;;;;;;4.53;1.77;;;;;;;15.34;81.30;100145.13;5051854;28;20044;-72
2022/11/07 09:38:15;;;;;;;4.65;1.63;;;;;;;15.41;80.79;100152.47;5055613;28;20041;-73
2022/11/07 09:41:09;;;;;;;1.60;1.15;;;;;;;15.01;81.53;100143.03;5055722;28;20425;-72
2022/11/07 09:43:40;;;;;;;3.33;1.50;;;;;;;15.12;81.88;100146.44;5054612;28;20045;-72
2022/11/07 09:46:18;;;;;;;3.60;1.10;;;;;;;15.27;81.54;100161.47;5052585;28;20040;-72
2022/11/07 09:48:50;;;;;;;1.95;0.90;;;;;;;15.37;81.01;100153.25;5039855;28;20033;-72
2022/11/07 09:51:33;;;;;;;3.65;1.33;;;;;;;15.48;80.57;100147.78;5051887;28;20114;-71
2022/11/07 09:54:04;;;;;;;4.93;1.35;;;;;;;15.66;79.65;100148.38;5053999;28;20041;-71
2022/11/07 09:56:30;;;;;;;;;;;;;;;15.98;79.25;100154.31;5042763;28;20078;-73
2022/11/07 09:59:01;;;;;;;2.35;1.10;;;;;;;15.85;77.85;100166.81;5055526;28;19909;-71
2022/11/07 10:01:30;;;;;;;1.83;1.23;;;;;;;15.86;78.30;100157.53;5033091;28;20051;-72
2022/11/07 10:03:57;;;;;;;3.83;1.30;;;;;;;16.11;77.58;100173.56;5041367;28;20091;-70
2022/11/07 10:06:30;;;;;;;1.65;1.17;;;;;;;15.74;78.05;100171.59;5052225;28;20086;-71
2022/11/07 10:09:07;;;;;;;2.33;1.52;;;;;;;15.79;78.38;100167.69;5043254;28;20434;-72
2022/11/07 10:11:39;;;;;;;2.72;1.70;;;;;;;15.82;78.21;100183.94;5043093;28;20033;-72
2022/11/07 10:14:52;;;;;;;4.43;1.00;;;;;;;15.67;78.76;100171.66;5042845;28;20033;-72
2022/11/07 10:17:41;;;;;;;3.28;1.08;;;;;;;15.65;79.88;100187.56;5051140;28;20116;-72
2022/11/07 10:20:26;;;;;;;12.25;1.63;;;;;;;15.66;79.36;100196.50;5051114;28;20100;-72
2022/11/07 10:22:57;;;;;;;3.60;1.90;;;;;;;15.37;80.88;100185.81;5047231;28;20116;-73
2022/11/07 10:25:51;;;;;;;4.18;1.30;;;;;;;15.56;80.61;100197.34;5057927;28;20033;-72
2022/11/07 10:28:19;;;;;;;2.20;1.50;;;;;;;15.51;80.02;100182.25;5053496;28;20037;-72
2022/11/07 10:30:50;;;;;;;5.28;1.45;;;;;;;15.49;80.10;100187.31;5055109;28;20761;-72
2022/11/07 10:33:25;;;;;;;1.35;1.10;;;;;;;15.53;80.81;100198.91;5053556;28;20037;-72
2022/11/07 10:36:04;;;;;;;5.47;1.33;;;;;;;15.63;80.79;100203.50;5044462;28;20033;-71
2022/11/07 10:38:35;;;;;;;2.22;1.52;;;;;;;15.74;80.07;100192.53;5047783;28;20472;-71
2022/11/07 10:41:01;;;;;;;2.25;1.60;;;;;;;15.67;80.36;100198.81;5047785;28;20029;-70
2022/11/07 10:43:38;;;;;;;2.00;1.20;;;;;;;15.56;80.71;100191.91;5044363;28;20447;-70
2022/11/07 10:46:12;;;;;;;2.28;1.42;;;;;;;15.61;80.90;100200.41;5035839;28;20066;-71
2022/11/07 10:48:48;;;;;;;2.60;1.67;;;;;;;15.75;80.43;100200.31;5049202;28;20032;-72
2022/11/07 10:51:13;;;;;;;4.32;1.50;;;;;;;15.83;80.64;100196.31;5051076;28;20493;-71
2022/11/07 10:53:43;;;;;;;6.70;1.50;;;;;;;15.97;78.93;100185.34;5050745;28;20032;-71
2022/11/07 10:56:11;;;;;;;3.25;1.35;;;;;;;15.67;80.10;100192.59;5048905;28;20040;-72
2022/11/07 10:58:43;;;;;;;3.10;1.50;;;;;;;15.87;79.63;100196.31;5052547;28;20051;-71
2022/11/07 11:01:10;;;;;;;1.73;1.10;;;;;;;15.95;79.02;100197.81;5054921;28;20028;-72
2022/11/07 11:03:42;;;;;;;3.22;1.63;;;;;;;16.01;78.86;100191.53;5051373;28;20091;-73
2022/11/07 11:06:16;;;;;;;4.28;1.70;;;;;;;15.89;79.17;100183.13;5047946;28;20041;-73
2022/11/07 11:08:43;;;;;;;7.78;2.00;;;;;;;15.90;78.49;100195.50;5042166;28;20553;-73
2022/11/07 11:11:30;;;;;;;2.70;1.30;;;;;;;15.92;78.84;100193.94;5037935;28;20041;-73
2022/11/07 11:14:15;;;;;;;1.48;1.30;;;;;;;15.90;79.32;100190.84;5038815;28;20037;-73
2022/11/07 11:16:41;;;;;;;8.00;1.38;;;;;;;15.92;79.57;100188.50;5045781;28;20623;-73
2022/11/07 11:19:28;;;;;;;1.30;1.10;;;;;;;15.96;78.45;100186.53;5047513;28;20060;-73
2022/11/07 11:21:57;;;;;;;3.03;1.10;;;;;;;16.00;78.57;100190.00;5043064;28;20025;-72
2022/11/07 11:24:28;;;;;;;1.70;1.08;;;;;;;15.94;78.56;100190.81;5041438;28;20032;-72
2022/11/07 11:26:58;;;;;;;3.35;2.03;;;;;;;15.93;78.13;100192.75;5045816;28;20049;-73
2022/11/07 11:29:34;;;;;;;4.55;1.08;;;;;;;15.83;78.05;100199.03;5040926;28;20392;-73
2022/11/07 11:32:02;;;;;;;2.17;1.10;;;;;;;15.77;78.26;100191.75;5045388;28;20040;-72
2022/11/07 11:34:48;;;;;;;9.10;1.23;;;;;;;15.91;77.67;100194.34;5040672;28;20040;-73
2022/11/07 11:37:18;;;;;;;3.33;1.45;;;;;;;15.68;78.28;100196.88;5042871;28;20029;-72
2022/11/07 11:39:56;;;;;;;4.18;1.55;;;;;;;15.63;79.12;100192.63;5042009;28;20041;-73
2022/11/07 11:42:43;;;;;;;2.42;1.30;;;;;;;15.85;78.59;100183.13;5032799;28;20041;-73
2022/11/07 11:45:33;;;;;;;2.70;1.50;;;;;;;15.80;78.48;100180.84;5033431;28;20151;-71
2022/11/07 11:48:25;;;;;;;4.18;1.50;;;;;;;15.81;78.92;100182.41;5047497;28;20037;-72